sensor_id;sensor_type;location;lat;lon;timestamp;P1;durP1;ratioP1;P2;durP2;ratioP2
73898;SDS011;62234;50.892;12.724;2022-08-01T00:01:52;2.42;;;1.25;;
73898;SDS011;62234;50.892;12.724;2022-08-01T00:04:18;1.42;;;1.33;;
73898;SDS011;62234;50.892;12.724;2022-08-01T00:06:44;1.42;;;1.33;;
73898;SDS011;62234;50.892;12.724;2022-08-01T00:09:10;1.13;;;1.05;;
73898;SDS011;62234;50.892;12.724;2022-08-01T00:11:36;1.42;;;1.33;;
73898;SDS011;62234;50.892;12.724;2022-08-01T00:14:03;1.55;;;1.10;;
73898;SDS011;62234;50.892;12.724;2022-08-01T00:16:29;1.02;;;1.02;;
73898;SDS011;62234;50.892;12.724;2022-08-01T00:18:55;1.52;;;1.42;;
73898;SDS011;62234;50.892;12.724;2022-08-01T00:21:21;1.50;;;1.00;;
73898;SDS011;62234;50.892;12.724;2022-08-01T00:23:47;1.40;;;1.05;;
73898;SDS011;62234;50.892;12.724;2022-08-01T00:26:13;1.17;;;1.13;;
73898;SDS011;62234;50.892;12.724;2022-08-01T00:28:40;1.20;;;1.20;;
73898;SDS011;62234;50.892;12.724;2022-08-01T00:31:06;1.55;;;1.45;;
73898;SDS011;62234;50.892;12.724;2022-08-01T00:33:32;1.20;;;1.20;;
73898;SDS011;62234;50.892;12.724;2022-08-01T00:35:58;1.27;;;1.17;;
73898;SDS011;62234;50.892;12.724;2022-08-01T00:38:24;1.17;;;1.10;;
73898;SDS011;62234;50.892;12.724;2022-08-01T00:40:50;1.92;;;1.13;;
73898;SDS011;62234;50.892;12.724;2022-08-01T00:43:16;1.23;;;1.15;;
73898;SDS011;62234;50.892;12.724;2022-08-01T00:45:42;1.27;;;1.17;;
73898;SDS011;62234;50.892;12.724;2022-08-01T00:48:08;1.45;;;1.35;;
73898;SDS011;62234;50.892;12.724;2022-08-01T00:50:34;1.15;;;1.10;;
73898;SDS011;62234;50.892;12.724;2022-08-01T00:53:00;1.33;;;1.20;;
73898;SDS011;62234;50.892;12.724;2022-08-01T00:55:27;1.30;;;1.20;;
73898;SDS011;62234;50.892;12.724;2022-08-01T00:57:53;1.20;;;1.10;;
73898;SDS011;62234;50.892;12.724;2022-08-01T01:00:19;1.10;;;1.10;;
73898;SDS011;62234;50.892;12.724;2022-08-01T01:02:45;1.40;;;1.30;;
73898;SDS011;62234;50.892;12.724;2022-08-01T01:05:11;1.48;;;1.38;;
73898;SDS011;62234;50.892;12.724;2022-08-01T01:07:54;1.23;;;1.13;;
73898;SDS011;62234;50.892;12.724;2022-08-01T01:13:06;2.15;;;1.20;;
73898;SDS011;62234;50.892;12.724;2022-08-01T01:15:41;1.23;;;1.00;;
73898;SDS011;62234;50.892;12.724;2022-08-01T01:18:17;1.30;;;1.20;;
73898;SDS011;62234;50.892;12.724;2022-08-01T01:20:49;1.02;;;1.00;;
73898;SDS011;62234;50.892;12.724;2022-08-01T01:26:06;1.25;;;1.15;;
73898;SDS011;62234;50.892;12.724;2022-08-01T01:28:40;1.70;;;1.38;;
73898;SDS011;62234;50.892;12.724;2022-08-01T01:31:09;1.27;;;1.00;;
73898;SDS011;62234;50.892;12.724;2022-08-01T01:33:36;1.25;;;1.15;;
73898;SDS011;62234;50.892;12.724;2022-08-01T01:36:04;0.90;;;0.90;;
73898;SDS011;62234;50.892;12.724;2022-08-01T01:38:36;1.10;;;1.10;;
73898;SDS011;62234;50.892;12.724;2022-08-01T01:41:06;1.23;;;1.13;;
73898;SDS011;62234;50.892;12.724;2022-08-01T01:43:33;1.33;;;1.23;;
73898;SDS011;62234;50.892;12.724;2022-08-01T01:45:59;1.38;;;1.27;;
73898;SDS011;62234;50.892;12.724;2022-08-01T01:48:25;1.02;;;1.02;;
73898;SDS011;62234;50.892;12.724;2022-08-01T01:50:52;1.50;;;1.10;;
73898;SDS011;62234;50.892;12.724;2022-08-01T01:53:20;1.88;;;1.38;;
73898;SDS011;62234;50.892;12.724;2022-08-01T01:55:47;1.08;;;1.08;;
73898;SDS011;62234;50.892;12.724;2022-08-01T01:58:14;1.08;;;1.08;;
73898;SDS011;62234;50.892;12.724;2022-08-01T02:00:41;0.95;;;0.95;;
73898;SDS011;62234;50.892;12.724;2022-08-01T02:03:09;1.33;;;1.23;;
73898;SDS011;62234;50.892;12.724;2022-08-01T02:05:35;1.17;;;1.13;;
73898;SDS011;62234;50.892;12.724;2022-08-01T02:08:02;1.30;;;1.20;;
73898;SDS011;62234;50.892;12.724;2022-08-01T02:10:29;1.20;;;1.20;;
73898;SDS011;62234;50.892;12.724;2022-08-01T02:12:57;1.42;;;1.35;;
73898;SDS011;62234;50.892;12.724;2022-08-01T02:15:23;1.17;;;1.17;;
73898;SDS011;62234;50.892;12.724;2022-08-01T02:17:50;1.10;;;1.10;;
73898;SDS011;62234;50.892;12.724;2022-08-01T02:20:16;1.52;;;1.15;;
73898;SDS011;62234;50.892;12.724;2022-08-01T02:22:45;0.95;;;0.95;;
73898;SDS011;62234;50.892;12.724;2022-08-01T02:27:40;1.48;;;0.98;;
73898;SDS011;62234;50.892;12.724;2022-08-01T02:30:08;1.30;;;1.20;;
73898;SDS011;62234;50.892;12.724;2022-08-01T02:32:37;1.02;;;1.02;;
73898;SDS011;62234;50.892;12.724;2022-08-01T02:35:04;1.08;;;1.08;;
73898;SDS011;62234;50.892;12.724;2022-08-01T02:37:33;1.52;;;1.42;;
73898;SDS011;62234;50.892;12.724;2022-08-01T02:40:00;1.23;;;1.23;;
73898;SDS011;62234;50.892;12.724;2022-08-01T02:42:27;1.85;;;1.30;;
73898;SDS011;62234;50.892;12.724;2022-08-01T02:44:54;1.60;;;1.15;;
73898;SDS011;62234;50.892;12.724;2022-08-01T02:47:20;1.75;;;1.38;;
73898;SDS011;62234;50.892;12.724;2022-08-01T02:49:48;1.35;;;1.23;;
73898;SDS011;62234;50.892;12.724;2022-08-01T02:52:17;1.10;;;1.00;;
73898;SDS011;62234;50.892;12.724;2022-08-01T02:54:45;1.33;;;1.02;;
73898;SDS011;62234;50.892;12.724;2022-08-01T02:57:12;2.08;;;1.13;;
73898;SDS011;62234;50.892;12.724;2022-08-01T02:59:39;1.05;;;1.00;;
73898;SDS011;62234;50.892;12.724;2022-08-01T03:02:06;1.30;;;1.23;;
73898;SDS011;62234;50.892;12.724;2022-08-01T03:04:34;1.20;;;1.20;;
73898;SDS011;62234;50.892;12.724;2022-08-01T03:07:02;1.20;;;1.15;;
73898;SDS011;62234;50.892;12.724;2022-08-01T03:09:28;1.38;;;1.30;;
73898;SDS011;62234;50.892;12.724;2022-08-01T03:11:55;1.40;;;1.30;;
73898;SDS011;62234;50.892;12.724;2022-08-01T03:14:22;1.45;;;1.35;;
73898;SDS011;62234;50.892;12.724;2022-08-01T03:16:49;1.45;;;1.35;;
73898;SDS011;62234;50.892;12.724;2022-08-01T03:19:17;1.27;;;1.23;;
73898;SDS011;62234;50.892;12.724;2022-08-01T03:21:43;1.42;;;1.33;;
73898;SDS011;62234;50.892;12.724;2022-08-01T03:24:10;1.60;;;1.45;;
73898;SDS011;62234;50.892;12.724;2022-08-01T03:26:36;1.20;;;1.20;;
73898;SDS011;62234;50.892;12.724;2022-08-01T03:29:04;1.20;;;1.20;;
73898;SDS011;62234;50.892;12.724;2022-08-01T03:31:35;1.40;;;1.30;;
73898;SDS011;62234;50.892;12.724;2022-08-01T03:34:01;1.50;;;1.40;;
73898;SDS011;62234;50.892;12.724;2022-08-01T03:36:28;1.15;;;1.08;;
73898;SDS011;62234;50.892;12.724;2022-08-01T03:38:56;1.88;;;1.50;;
73898;SDS011;62234;50.892;12.724;2022-08-01T03:41:23;1.20;;;1.20;;
73898;SDS011;62234;50.892;12.724;2022-08-01T03:43:55;1.23;;;1.23;;
73898;SDS011;62234;50.892;12.724;2022-08-01T03:46:22;1.60;;;1.42;;
73898;SDS011;62234;50.892;12.724;2022-08-01T03:48:52;1.45;;;1.40;;
73898;SDS011;62234;50.892;12.724;2022-08-01T03:51:20;1.50;;;1.40;;
73898;SDS011;62234;50.892;12.724;2022-08-01T03:53:47;1.20;;;1.20;;
73898;SDS011;62234;50.892;12.724;2022-08-01T03:56:14;1.40;;;1.30;;
73898;SDS011;62234;50.892;12.724;2022-08-01T03:58:44;1.40;;;1.40;;
73898;SDS011;62234;50.892;12.724;2022-08-01T04:01:10;1.38;;;1.35;;
73898;SDS011;62234;50.892;12.724;2022-08-01T04:03:36;1.42;;;1.33;;
73898;SDS011;62234;50.892;12.724;2022-08-01T04:06:06;1.60;;;1.50;;
73898;SDS011;62234;50.892;12.724;2022-08-01T04:08:39;1.35;;;1.33;;
73898;SDS011;62234;50.892;12.724;2022-08-01T04:11:07;1.75;;;1.65;;
73898;SDS011;62234;50.892;12.724;2022-08-01T04:13:33;1.50;;;1.40;;
73898;SDS011;62234;50.892;12.724;2022-08-01T04:15:59;1.45;;;1.35;;
73898;SDS011;62234;50.892;12.724;2022-08-01T04:18:25;1.48;;;1.40;;
73898;SDS011;62234;50.892;12.724;2022-08-01T04:20:51;1.40;;;1.30;;
73898;SDS011;62234;50.892;12.724;2022-08-01T04:23:18;1.23;;;1.23;;
73898;SDS011;62234;50.892;12.724;2022-08-01T04:25:46;1.50;;;1.40;;
73898;SDS011;62234;50.892;12.724;2022-08-01T04:28:13;1.50;;;1.40;;
73898;SDS011;62234;50.892;12.724;2022-08-01T04:30:45;1.58;;;1.50;;
73898;SDS011;62234;50.892;12.724;2022-08-01T04:33:12;1.20;;;1.20;;
73898;SDS011;62234;50.892;12.724;2022-08-01T04:35:41;1.60;;;1.50;;
73898;SDS011;62234;50.892;12.724;2022-08-01T04:38:08;1.60;;;1.50;;
73898;SDS011;62234;50.892;12.724;2022-08-01T04:40:35;1.30;;;1.25;;
73898;SDS011;62234;50.892;12.724;2022-08-01T04:43:02;1.63;;;1.52;;
73898;SDS011;62234;50.892;12.724;2022-08-01T04:45:28;1.27;;;1.17;;
73898;SDS011;62234;50.892;12.724;2022-08-01T04:47:54;1.40;;;1.30;;
73898;SDS011;62234;50.892;12.724;2022-08-01T04:50:20;1.52;;;1.25;;
73898;SDS011;62234;50.892;12.724;2022-08-01T04:52:46;2.20;;;1.30;;
73898;SDS011;62234;50.892;12.724;2022-08-01T04:55:12;1.75;;;1.40;;
73898;SDS011;62234;50.892;12.724;2022-08-01T04:57:39;1.40;;;1.33;;
73898;SDS011;62234;50.892;12.724;2022-08-01T05:00:06;1.33;;;1.23;;
73898;SDS011;62234;50.892;12.724;2022-08-01T05:02:33;1.35;;;1.25;;
73898;SDS011;62234;50.892;12.724;2022-08-01T05:04:58;1.10;;;1.10;;
73898;SDS011;62234;50.892;12.724;2022-08-01T05:07:24;1.67;;;1.25;;
73898;SDS011;62234;50.892;12.724;2022-08-01T05:09:50;1.42;;;1.33;;
73898;SDS011;62234;50.892;12.724;2022-08-01T05:12:16;1.52;;;1.38;;
73898;SDS011;62234;50.892;12.724;2022-08-01T05:14:42;1.25;;;1.20;;
73898;SDS011;62234;50.892;12.724;2022-08-01T05:17:09;1.30;;;1.20;;
73898;SDS011;62234;50.892;12.724;2022-08-01T05:19:36;1.45;;;1.35;;
73898;SDS011;62234;50.892;12.724;2022-08-01T05:22:04;1.40;;;1.30;;
73898;SDS011;62234;50.892;12.724;2022-08-01T05:24:30;1.45;;;1.35;;
73898;SDS011;62234;50.892;12.724;2022-08-01T05:26:57;1.30;;;1.20;;
73898;SDS011;62234;50.892;12.724;2022-08-01T05:29:23;2.33;;;1.50;;
73898;SDS011;62234;50.892;12.724;2022-08-01T05:31:49;1.50;;;1.40;;
73898;SDS011;62234;50.892;12.724;2022-08-01T05:34:15;1.25;;;1.13;;
73898;SDS011;62234;50.892;12.724;2022-08-01T05:36:41;2.17;;;1.50;;
73898;SDS011;62234;50.892;12.724;2022-08-01T05:39:07;1.38;;;1.33;;
73898;SDS011;62234;50.892;12.724;2022-08-01T05:41:33;1.50;;;1.40;;
73898;SDS011;62234;50.892;12.724;2022-08-01T05:43:59;1.30;;;1.30;;
73898;SDS011;62234;50.892;12.724;2022-08-01T05:46:25;1.38;;;1.27;;
73898;SDS011;62234;50.892;12.724;2022-08-01T05:48:51;1.38;;;1.38;;
73898;SDS011;62234;50.892;12.724;2022-08-01T05:51:17;1.42;;;1.33;;
73898;SDS011;62234;50.892;12.724;2022-08-01T05:53:43;1.40;;;1.30;;
73898;SDS011;62234;50.892;12.724;2022-08-01T05:56:09;1.48;;;1.38;;
73898;SDS011;62234;50.892;12.724;2022-08-01T05:58:35;1.35;;;1.25;;
73898;SDS011;62234;50.892;12.724;2022-08-01T06:01:01;1.33;;;1.20;;
73898;SDS011;62234;50.892;12.724;2022-08-01T06:03:26;1.10;;;1.10;;
73898;SDS011;62234;50.892;12.724;2022-08-01T06:05:56;2.28;;;1.20;;
73898;SDS011;62234;50.892;12.724;2022-08-01T06:08:22;1.23;;;1.23;;
73898;SDS011;62234;50.892;12.724;2022-08-01T06:10:47;1.30;;;1.20;;
73898;SDS011;62234;50.892;12.724;2022-08-01T06:13:13;1.20;;;0.98;;
73898;SDS011;62234;50.892;12.724;2022-08-01T06:15:39;1.50;;;1.40;;
73898;SDS011;62234;50.892;12.724;2022-08-01T06:18:05;1.33;;;1.23;;
73898;SDS011;62234;50.892;12.724;2022-08-01T06:20:31;2.65;;;1.27;;
73898;SDS011;62234;50.892;12.724;2022-08-01T06:22:57;2.45;;;1.20;;
73898;SDS011;62234;50.892;12.724;2022-08-01T06:25:23;3.03;;;1.50;;
73898;SDS011;62234;50.892;12.724;2022-08-01T06:27:49;1.23;;;1.13;;
73898;SDS011;62234;50.892;12.724;2022-08-01T06:30:15;1.98;;;1.40;;
73898;SDS011;62234;50.892;12.724;2022-08-01T06:32:41;1.48;;;1.20;;
73898;SDS011;62234;50.892;12.724;2022-08-01T06:35:07;1.85;;;1.42;;
73898;SDS011;62234;50.892;12.724;2022-08-01T06:37:33;2.63;;;1.40;;
73898;SDS011;62234;50.892;12.724;2022-08-01T06:40:03;4.72;;;1.40;;
73898;SDS011;62234;50.892;12.724;2022-08-01T06:42:28;1.77;;;1.33;;
73898;SDS011;62234;50.892;12.724;2022-08-01T06:44:56;3.80;;;1.33;;
73898;SDS011;62234;50.892;12.724;2022-08-01T06:47:22;2.42;;;1.10;;
73898;SDS011;62234;50.892;12.724;2022-08-01T06:49:48;2.35;;;1.30;;
73898;SDS011;62234;50.892;12.724;2022-08-01T06:52:14;2.38;;;1.30;;
73898;SDS011;62234;50.892;12.724;2022-08-01T06:54:41;2.33;;;1.23;;
73898;SDS011;62234;50.892;12.724;2022-08-01T06:57:07;1.40;;;1.17;;
73898;SDS011;62234;50.892;12.724;2022-08-01T06:59:33;2.58;;;1.15;;
73898;SDS011;62234;50.892;12.724;2022-08-01T07:01:59;1.50;;;1.05;;
73898;SDS011;62234;50.892;12.724;2022-08-01T07:04:26;1.20;;;1.10;;
73898;SDS011;62234;50.892;12.724;2022-08-01T07:06:52;1.00;;;0.98;;
73898;SDS011;62234;50.892;12.724;2022-08-01T07:09:18;2.60;;;1.33;;
73898;SDS011;62234;50.892;12.724;2022-08-01T07:11:44;1.35;;;1.00;;
73898;SDS011;62234;50.892;12.724;2022-08-01T07:14:09;1.67;;;0.90;;
73898;SDS011;62234;50.892;12.724;2022-08-01T07:16:35;0.73;;;0.73;;
73898;SDS011;62234;50.892;12.724;2022-08-01T07:19:01;1.38;;;0.75;;
73898;SDS011;62234;50.892;12.724;2022-08-01T07:21:27;1.48;;;0.70;;
73898;SDS011;62234;50.892;12.724;2022-08-01T07:23:53;0.75;;;0.50;;
73898;SDS011;62234;50.892;12.724;2022-08-01T07:26:19;1.52;;;0.80;;
73898;SDS011;62234;50.892;12.724;2022-08-01T07:28:46;2.58;;;0.88;;
73898;SDS011;62234;50.892;12.724;2022-08-01T07:31:12;3.28;;;0.95;;
73898;SDS011;62234;50.892;12.724;2022-08-01T07:33:38;1.25;;;0.93;;
73898;SDS011;62234;50.892;12.724;2022-08-01T07:36:04;1.20;;;0.98;;
73898;SDS011;62234;50.892;12.724;2022-08-01T07:38:30;0.85;;;0.70;;
73898;SDS011;62234;50.892;12.724;2022-08-01T07:40:56;1.30;;;0.95;;
73898;SDS011;62234;50.892;12.724;2022-08-01T07:43:22;1.30;;;1.00;;
73898;SDS011;62234;50.892;12.724;2022-08-01T07:45:47;1.00;;;0.75;;
73898;SDS011;62234;50.892;12.724;2022-08-01T07:48:13;1.58;;;0.80;;
73898;SDS011;62234;50.892;12.724;2022-08-01T07:50:39;3.08;;;0.90;;
73898;SDS011;62234;50.892;12.724;2022-08-01T07:53:05;1.63;;;0.85;;
73898;SDS011;62234;50.892;12.724;2022-08-01T07:55:31;1.33;;;0.88;;
73898;SDS011;62234;50.892;12.724;2022-08-01T07:57:57;1.52;;;1.08;;
73898;SDS011;62234;50.892;12.724;2022-08-01T08:00:23;3.70;;;1.20;;
73898;SDS011;62234;50.892;12.724;2022-08-01T08:02:49;2.08;;;0.80;;
73898;SDS011;62234;50.892;12.724;2022-08-01T08:05:15;5.22;;;0.75;;
73898;SDS011;62234;50.892;12.724;2022-08-01T08:07:41;1.48;;;0.80;;
73898;SDS011;62234;50.892;12.724;2022-08-01T08:10:07;1.65;;;0.80;;
73898;SDS011;62234;50.892;12.724;2022-08-01T08:12:33;4.15;;;0.90;;
73898;SDS011;62234;50.892;12.724;2022-08-01T08:14:59;1.30;;;0.90;;
73898;SDS011;62234;50.892;12.724;2022-08-01T08:17:26;2.55;;;1.00;;
73898;SDS011;62234;50.892;12.724;2022-08-01T08:19:52;3.33;;;1.10;;
73898;SDS011;62234;50.892;12.724;2022-08-01T08:22:18;1.20;;;1.10;;
73898;SDS011;62234;50.892;12.724;2022-08-01T08:24:44;2.05;;;1.05;;
73898;SDS011;62234;50.892;12.724;2022-08-01T08:27:10;2.13;;;0.88;;
73898;SDS011;62234;50.892;12.724;2022-08-01T08:29:36;5.43;;;0.80;;
73898;SDS011;62234;50.892;12.724;2022-08-01T08:32:02;1.08;;;0.80;;
73898;SDS011;62234;50.892;12.724;2022-08-01T08:34:28;1.48;;;0.80;;
73898;SDS011;62234;50.892;12.724;2022-08-01T08:36:54;2.40;;;0.93;;
73898;SDS011;62234;50.892;12.724;2022-08-01T08:39:21;0.60;;;0.60;;
73898;SDS011;62234;50.892;12.724;2022-08-01T08:41:47;0.95;;;0.63;;
73898;SDS011;62234;50.892;12.724;2022-08-01T08:44:13;1.80;;;0.80;;
73898;SDS011;62234;50.892;12.724;2022-08-01T08:46:41;3.40;;;0.68;;
73898;SDS011;62234;50.892;12.724;2022-08-01T08:49:09;2.92;;;0.60;;
73898;SDS011;62234;50.892;12.724;2022-08-01T08:51:37;4.47;;;0.93;;
73898;SDS011;62234;50.892;12.724;2022-08-01T08:54:04;2.50;;;1.13;;
73898;SDS011;62234;50.892;12.724;2022-08-01T08:56:31;2.65;;;0.63;;
73898;SDS011;62234;50.892;12.724;2022-08-01T08:58:59;2.17;;;0.60;;
73898;SDS011;62234;50.892;12.724;2022-08-01T09:01:25;2.08;;;0.60;;
73898;SDS011;62234;50.892;12.724;2022-08-01T09:03:51;0.60;;;0.40;;
73898;SDS011;62234;50.892;12.724;2022-08-01T09:06:18;1.83;;;0.63;;
73898;SDS011;62234;50.892;12.724;2022-08-01T09:08:44;1.27;;;0.60;;
73898;SDS011;62234;50.892;12.724;2022-08-01T09:11:10;0.60;;;0.60;;
73898;SDS011;62234;50.892;12.724;2022-08-01T09:13:36;3.72;;;0.82;;
73898;SDS011;62234;50.892;12.724;2022-08-01T09:16:02;0.93;;;0.50;;
73898;SDS011;62234;50.892;12.724;2022-08-01T09:18:30;2.95;;;0.63;;
73898;SDS011;62234;50.892;12.724;2022-08-01T09:23:32;1.50;;;0.70;;
73898;SDS011;62234;50.892;12.724;2022-08-01T09:25:58;1.80;;;0.68;;
73898;SDS011;62234;50.892;12.724;2022-08-01T09:28:28;0.77;;;0.52;;
73898;SDS011;62234;50.892;12.724;2022-08-01T09:30:57;1.25;;;0.60;;
73898;SDS011;62234;50.892;12.724;2022-08-01T09:33:23;1.95;;;0.57;;
73898;SDS011;62234;50.892;12.724;2022-08-01T09:35:56;3.55;;;0.70;;
73898;SDS011;62234;50.892;12.724;2022-08-01T09:38:23;1.33;;;0.38;;
73898;SDS011;62234;50.892;12.724;2022-08-01T09:40:53;0.50;;;0.50;;
73898;SDS011;62234;50.892;12.724;2022-08-01T09:43:19;1.80;;;0.70;;
73898;SDS011;62234;50.892;12.724;2022-08-01T09:45:46;2.92;;;0.50;;
73898;SDS011;62234;50.892;12.724;2022-08-01T09:48:12;2.33;;;0.57;;
73898;SDS011;62234;50.892;12.724;2022-08-01T09:50:38;7.25;;;0.65;;
73898;SDS011;62234;50.892;12.724;2022-08-01T09:53:05;0.60;;;0.60;;
73898;SDS011;62234;50.892;12.724;2022-08-01T09:55:31;1.13;;;0.47;;
73898;SDS011;62234;50.892;12.724;2022-08-01T09:57:57;0.88;;;0.40;;
73898;SDS011;62234;50.892;12.724;2022-08-01T10:00:25;2.38;;;0.75;;
73898;SDS011;62234;50.892;12.724;2022-08-01T10:02:51;2.17;;;0.50;;
73898;SDS011;62234;50.892;12.724;2022-08-01T10:05:17;3.40;;;0.40;;
73898;SDS011;62234;50.892;12.724;2022-08-01T10:07:55;3.20;;;0.73;;
73898;SDS011;62234;50.892;12.724;2022-08-01T10:10:21;3.80;;;0.73;;
73898;SDS011;62234;50.892;12.724;2022-08-01T10:12:47;1.85;;;0.38;;
73898;SDS011;62234;50.892;12.724;2022-08-01T10:15:14;1.67;;;0.47;;
73898;SDS011;62234;50.892;12.724;2022-08-01T10:17:41;1.38;;;0.55;;
73898;SDS011;62234;50.892;12.724;2022-08-01T10:20:11;2.63;;;0.55;;
73898;SDS011;62234;50.892;12.724;2022-08-01T10:22:37;4.05;;;1.23;;
73898;SDS011;62234;50.892;12.724;2022-08-01T10:25:04;0.93;;;0.40;;
73898;SDS011;62234;50.892;12.724;2022-08-01T10:27:31;4.13;;;0.43;;
73898;SDS011;62234;50.892;12.724;2022-08-01T10:29:59;3.90;;;0.65;;
73898;SDS011;62234;50.892;12.724;2022-08-01T10:32:30;2.05;;;0.50;;
73898;SDS011;62234;50.892;12.724;2022-08-01T10:34:56;1.17;;;0.60;;
73898;SDS011;62234;50.892;12.724;2022-08-01T10:37:23;0.43;;;0.35;;
73898;SDS011;62234;50.892;12.724;2022-08-01T10:39:50;0.90;;;0.40;;
73898;SDS011;62234;50.892;12.724;2022-08-01T10:42:16;3.60;;;0.40;;
73898;SDS011;62234;50.892;12.724;2022-08-01T10:44:43;0.65;;;0.52;;
73898;SDS011;62234;50.892;12.724;2022-08-01T10:47:12;2.35;;;0.70;;
73898;SDS011;62234;50.892;12.724;2022-08-01T10:49:49;0.55;;;0.35;;
73898;SDS011;62234;50.892;12.724;2022-08-01T10:52:17;0.85;;;0.40;;
73898;SDS011;62234;50.892;12.724;2022-08-01T10:54:42;1.65;;;0.50;;
73898;SDS011;62234;50.892;12.724;2022-08-01T10:57:09;0.95;;;0.50;;
73898;SDS011;62234;50.892;12.724;2022-08-01T10:59:46;0.85;;;0.50;;
73898;SDS011;62234;50.892;12.724;2022-08-01T11:02:13;0.75;;;0.50;;
73898;SDS011;62234;50.892;12.724;2022-08-01T11:04:50;1.08;;;0.50;;
73898;SDS011;62234;50.892;12.724;2022-08-01T11:07:23;1.30;;;0.50;;
73898;SDS011;62234;50.892;12.724;2022-08-01T11:09:58;0.50;;;0.40;;
73898;SDS011;62234;50.892;12.724;2022-08-01T11:12:40;0.70;;;0.70;;
73898;SDS011;62234;50.892;12.724;2022-08-01T11:17:33;0.65;;;0.43;;
73898;SDS011;62234;50.892;12.724;2022-08-01T11:20:06;0.70;;;0.50;;
73898;SDS011;62234;50.892;12.724;2022-08-01T11:22:54;0.35;;;0.35;;
73898;SDS011;62234;50.892;12.724;2022-08-01T11:25:18;0.30;;;0.30;;
73898;SDS011;62234;50.892;12.724;2022-08-01T11:27:44;1.60;;;0.43;;
73898;SDS011;62234;50.892;12.724;2022-08-01T11:35:18;0.50;;;0.40;;
73898;SDS011;62234;50.892;12.724;2022-08-01T11:37:50;0.85;;;0.30;;
73898;SDS011;62234;50.892;12.724;2022-08-01T11:40:24;0.50;;;0.30;;
73898;SDS011;62234;50.892;12.724;2022-08-01T11:43:15;1.17;;;0.73;;
73898;SDS011;62234;50.892;12.724;2022-08-01T11:45:49;0.50;;;0.40;;
73898;SDS011;62234;50.892;12.724;2022-08-01T11:48:19;0.50;;;0.30;;
73898;SDS011;62234;50.892;12.724;2022-08-01T11:50:45;1.25;;;0.40;;
73898;SDS011;62234;50.892;12.724;2022-08-01T11:53:11;1.17;;;0.50;;
73898;SDS011;62234;50.892;12.724;2022-08-01T11:55:43;0.75;;;0.40;;
73898;SDS011;62234;50.892;12.724;2022-08-01T11:58:09;0.30;;;0.30;;
73898;SDS011;62234;50.892;12.724;2022-08-01T12:00:35;1.02;;;0.20;;
73898;SDS011;62234;50.892;12.724;2022-08-01T12:03:03;0.43;;;0.40;;
73898;SDS011;62234;50.892;12.724;2022-08-01T12:05:29;0.38;;;0.20;;
73898;SDS011;62234;50.892;12.724;2022-08-01T12:07:56;0.50;;;0.50;;
73898;SDS011;62234;50.892;12.724;2022-08-01T12:10:23;0.30;;;0.30;;
73898;SDS011;62234;50.892;12.724;2022-08-01T12:12:51;0.30;;;0.30;;
73898;SDS011;62234;50.892;12.724;2022-08-01T12:15:18;0.65;;;0.30;;
73898;SDS011;62234;50.892;12.724;2022-08-01T12:17:45;1.25;;;0.32;;
73898;SDS011;62234;50.892;12.724;2022-08-01T12:20:15;0.30;;;0.30;;
73898;SDS011;62234;50.892;12.724;2022-08-01T12:22:41;0.20;;;0.20;;
73898;SDS011;62234;50.892;12.724;2022-08-01T12:25:09;0.20;;;0.20;;
73898;SDS011;62234;50.892;12.724;2022-08-01T12:27:35;0.30;;;0.30;;
73898;SDS011;62234;50.892;12.724;2022-08-01T12:30:02;1.85;;;0.20;;
73898;SDS011;62234;50.892;12.724;2022-08-01T12:32:31;0.32;;;0.30;;
73898;SDS011;62234;50.892;12.724;2022-08-01T12:35:00;0.30;;;0.30;;
73898;SDS011;62234;50.892;12.724;2022-08-01T12:37:27;0.38;;;0.30;;
73898;SDS011;62234;50.892;12.724;2022-08-01T12:39:53;0.38;;;0.38;;
73898;SDS011;62234;50.892;12.724;2022-08-01T12:42:19;0.40;;;0.40;;
73898;SDS011;62234;50.892;12.724;2022-08-01T12:44:46;0.60;;;0.30;;
73898;SDS011;62234;50.892;12.724;2022-08-01T12:47:13;0.20;;;0.20;;
73898;SDS011;62234;50.892;12.724;2022-08-01T12:49:41;0.30;;;0.30;;
73898;SDS011;62234;50.892;12.724;2022-08-01T12:52:07;0.28;;;0.28;;
73898;SDS011;62234;50.892;12.724;2022-08-01T12:57:24;0.88;;;0.28;;
73898;SDS011;62234;50.892;12.724;2022-08-01T12:59:52;0.57;;;0.20;;
73898;SDS011;62234;50.892;12.724;2022-08-01T13:02:18;0.40;;;0.20;;
73898;SDS011;62234;50.892;12.724;2022-08-01T13:04:50;0.20;;;0.20;;
73898;SDS011;62234;50.892;12.724;2022-08-01T13:07:16;0.55;;;0.13;;
73898;SDS011;62234;50.892;12.724;2022-08-01T13:09:51;0.47;;;0.25;;
73898;SDS011;62234;50.892;12.724;2022-08-01T13:12:17;0.93;;;0.30;;
73898;SDS011;62234;50.892;12.724;2022-08-01T13:14:43;0.73;;;0.20;;
73898;SDS011;62234;50.892;12.724;2022-08-01T13:17:09;0.30;;;0.30;;
73898;SDS011;62234;50.892;12.724;2022-08-01T13:19:42;0.50;;;0.20;;
73898;SDS011;62234;50.892;12.724;2022-08-01T13:22:08;0.20;;;0.20;;
73898;SDS011;62234;50.892;12.724;2022-08-01T13:24:34;0.43;;;0.20;;
73898;SDS011;62234;50.892;12.724;2022-08-01T13:27:01;0.13;;;0.13;;
73898;SDS011;62234;50.892;12.724;2022-08-01T13:29:35;0.63;;;0.20;;
73898;SDS011;62234;50.892;12.724;2022-08-01T13:32:14;0.63;;;0.28;;
73898;SDS011;62234;50.892;12.724;2022-08-01T13:34:40;0.20;;;0.20;;
73898;SDS011;62234;50.892;12.724;2022-08-01T13:37:06;0.28;;;0.20;;
73898;SDS011;62234;50.892;12.724;2022-08-01T13:39:32;0.20;;;0.10;;
73898;SDS011;62234;50.892;12.724;2022-08-01T13:42:09;1.58;;;0.30;;
73898;SDS011;62234;50.892;12.724;2022-08-01T13:44:35;0.28;;;0.20;;
73898;SDS011;62234;50.892;12.724;2022-08-01T13:47:02;0.50;;;0.30;;
73898;SDS011;62234;50.892;12.724;2022-08-01T13:49:28;0.10;;;0.10;;
73898;SDS011;62234;50.892;12.724;2022-08-01T13:51:54;0.20;;;0.15;;
73898;SDS011;62234;50.892;12.724;2022-08-01T13:54:20;0.25;;;0.25;;
73898;SDS011;62234;50.892;12.724;2022-08-01T13:56:46;0.20;;;0.20;;
73898;SDS011;62234;50.892;12.724;2022-08-01T13:59:12;0.13;;;0.13;;
73898;SDS011;62234;50.892;12.724;2022-08-01T14:01:38;0.30;;;0.15;;
73898;SDS011;62234;50.892;12.724;2022-08-01T14:04:04;0.20;;;0.20;;
73898;SDS011;62234;50.892;12.724;2022-08-01T14:06:31;0.20;;;0.20;;
73898;SDS011;62234;50.892;12.724;2022-08-01T14:08:57;1.88;;;0.30;;
73898;SDS011;62234;50.892;12.724;2022-08-01T14:11:23;0.13;;;0.13;;
73898;SDS011;62234;50.892;12.724;2022-08-01T14:13:49;0.10;;;0.10;;
73898;SDS011;62234;50.892;12.724;2022-08-01T14:16:15;0.52;;;0.20;;
73898;SDS011;62234;50.892;12.724;2022-08-01T14:18:41;0.13;;;0.13;;
73898;SDS011;62234;50.892;12.724;2022-08-01T14:21:07;0.30;;;0.13;;
73898;SDS011;62234;50.892;12.724;2022-08-01T14:23:33;0.17;;;0.17;;
73898;SDS011;62234;50.892;12.724;2022-08-01T14:25:59;0.17;;;0.17;;
73898;SDS011;62234;50.892;12.724;2022-08-01T14:28:26;0.90;;;0.20;;
73898;SDS011;62234;50.892;12.724;2022-08-01T14:30:52;0.35;;;0.30;;
73898;SDS011;62234;50.892;12.724;2022-08-01T14:33:20;0.20;;;0.13;;
73898;SDS011;62234;50.892;12.724;2022-08-01T14:35:46;0.28;;;0.20;;
73898;SDS011;62234;50.892;12.724;2022-08-01T14:38:12;0.30;;;0.20;;
73898;SDS011;62234;50.892;12.724;2022-08-01T14:40:38;0.43;;;0.10;;
73898;SDS011;62234;50.892;12.724;2022-08-01T14:43:05;0.52;;;0.32;;
73898;SDS011;62234;50.892;12.724;2022-08-01T14:45:31;0.10;;;0.10;;
73898;SDS011;62234;50.892;12.724;2022-08-01T14:48:01;1.08;;;0.40;;
73898;SDS011;62234;50.892;12.724;2022-08-01T14:50:27;0.05;;;0.05;;
73898;SDS011;62234;50.892;12.724;2022-08-01T14:52:53;0.80;;;0.28;;
73898;SDS011;62234;50.892;12.724;2022-08-01T14:55:19;0.20;;;0.20;;